Time;durP1;ratioP1;P1;durP2;ratioP2;P2;SDS_P1;SDS_P2;PMS_P1;PMS_P2;Temp;Humidity;BMP_temperature;BMP_pressure;BME280_temperature;BME280_humidity;BME280_pressure;Samples;Min_cycle;Max_cycle;Signal;HPM_P1;HPM_P2
2022/06/11 00:01:56;;;;;;;6.88;4.15;;;12.70;99.90;;;;;;5067730;28;20052;-60
2022/06/11 00:04:29;;;;;;;10.35;4.88;;;12.70;99.90;;;;;;5065874;28;20037;-60
2022/06/11 00:07:05;;;;;;;7.80;4.65;;;12.80;99.90;;;;;;5057138;28;20025;-60
2022/06/11 00:09:31;;;;;;;8.00;4.82;;;12.70;99.90;;;;;;5066028;28;20027;-60
2022/06/11 00:11:58;;;;;;;18.52;4.70;;;12.60;99.90;;;;;;5068404;28;20033;-60
2022/06/11 00:14:30;;;;;;;8.38;4.55;;;12.60;99.90;;;;;;5065325;28;20032;-61
2022/06/11 00:16:57;;;;;;;7.47;4.38;;;12.60;99.90;;;;;;5059326;28;20033;-61
2022/06/11 00:19:23;;;;;;;9.75;4.13;;;12.50;99.90;;;;;;5068016;28;20044;-61
2022/06/11 00:21:51;;;;;;;7.53;3.72;;;12.40;99.90;;;;;;5060170;28;20053;-60
2022/06/11 00:24:18;;;;;;;5.97;3.83;;;12.30;99.90;;;;;;5068140;28;20036;-60
2022/06/11 00:26:45;;;;;;;5.07;3.40;;;12.30;99.90;;;;;;5069178;28;20028;-60
2022/06/11 00:29:12;;;;;;;9.40;3.83;;;12.30;99.90;;;;;;5071209;28;20483;-60
2022/06/11 00:31:39;;;;;;;8.10;4.18;;;12.30;99.90;;;;;;5065850;28;20099;-60
2022/06/11 00:34:04;;;;;;;6.65;3.65;;;12.30;99.90;;;;;;5055621;28;20036;-61
2022/06/11 00:36:30;;;;;;;12.93;4.10;;;12.20;99.90;;;;;;5066202;28;20031;-61
2022/06/11 00:38:57;;;;;;;8.95;4.10;;;12.10;99.90;;;;;;5066583;28;20029;-60
2022/06/11 00:41:25;;;;;;;10.70;4.03;;;12.10;99.90;;;;;;5063275;28;20121;-61
2022/06/11 00:43:52;;;;;;;6.75;4.20;;;12.00;99.90;;;;;;5053859;28;20025;-60
2022/06/11 00:46:52;;;;;;;8.10;4.10;;;12.00;99.90;;;;;;5070078;28;20452;-60
2022/06/11 00:49:24;;;;;;;9.50;4.05;;;12.00;99.90;;;;;;5053460;28;20097;-61
2022/06/11 00:51:56;;;;;;;8.10;3.50;;;11.90;99.90;;;;;;5068791;28;20046;-60
2022/06/11 00:54:25;;;;;;;9.70;4.25;;;11.90;99.90;;;;;;5051545;28;20036;-60
2022/06/11 00:56:56;;;;;;;8.27;4.20;;;11.80;99.90;;;;;;5062525;28;20032;-60
2022/06/11 00:59:29;;;;;;;8.05;4.30;;;11.80;99.90;;;;;;5054301;28;20025;-60
2022/06/11 01:01:55;;;;;;;8.57;4.50;;;11.80;99.90;;;;;;5070202;28;20052;-60
2022/06/11 01:04:40;;;;;;;6.93;4.22;;;11.90;99.90;;;;;;5070620;28;20094;-60
2022/06/11 01:07:13;;;;;;;7.85;4.57;;;12.00;99.90;;;;;;5066362;28;20074;-60
2022/06/11 01:09:52;;;;;;;10.65;4.55;;;11.90;99.90;;;;;;5037324;28;20032;-60
2022/06/11 01:12:20;;;;;;;12.05;5.40;;;11.90;99.90;;;;;;5069482;28;20035;-60
2022/06/11 01:15:14;;;;;;;10.95;4.97;;;11.90;99.90;;;;;;5067860;28;20056;-60
2022/06/11 01:17:42;;;;;;;8.02;4.28;;;11.90;99.90;;;;;;5069189;28;20392;-61
2022/06/11 01:20:39;;;;;;;11.35;4.78;;;11.90;99.90;;;;;;5069678;28;20108;-60
2022/06/11 01:23:07;;;;;;;11.50;4.78;;;11.80;99.90;;;;;;5065869;28;20117;-60
2022/06/11 01:25:43;;;;;;;11.55;4.95;;;11.70;99.90;;;;;;5032875;28;20428;-60
2022/06/11 01:28:09;;;;;;;7.82;4.55;;;11.60;99.90;;;;;;5066890;28;20036;-60
2022/06/11 01:30:45;;;;;;;10.40;4.95;;;11.70;99.90;;;;;;5069820;28;20397;-60
2022/06/11 01:33:21;;;;;;;12.98;5.18;;;11.70;99.90;;;;;;5069687;28;20047;-60
2022/06/11 01:35:47;;;;;;;9.07;4.75;;;11.80;99.90;;;;;;5066115;28;20870;-61
2022/06/11 01:38:22;;;;;;;9.13;4.65;;;11.80;99.90;;;;;;5075122;28;20029;-60
2022/06/11 01:41:11;;;;;;;9.00;4.95;;;11.70;99.90;;;;;;5066370;28;20118;-60
2022/06/11 01:43:40;;;;;;;12.80;4.95;;;11.70;99.90;;;;;;5046376;28;20041;-61
2022/06/11 01:46:25;;;;;;;10.50;4.80;;;11.60;99.90;;;;;;5054662;28;20032;-60
2022/06/11 01:49:28;;;;;;;8.23;4.80;;;11.60;99.90;;;;;;5070220;28;20032;-61
2022/06/11 01:52:15;;;;;;;9.25;4.75;;;11.50;99.90;;;;;;5057807;28;20039;-60
2022/06/11 01:55:08;;;;;;;10.82;4.68;;;11.40;99.90;;;;;;5064615;28;20482;-60
2022/06/11 01:58:00;;;;;;;9.63;4.22;;;11.30;99.90;;;;;;5068570;28;20433;-60
2022/06/11 02:00:31;;;;;;;10.30;4.00;;;11.20;99.90;;;;;;5066194;28;20028;-60
2022/06/11 02:03:18;;;;;;;12.20;5.45;;;11.20;99.90;;;;;;5067793;28;20041;-60
2022/06/11 02:06:11;;;;;;;9.45;4.50;;;11.20;99.90;;;;;;5077253;28;20032;-60
2022/06/11 02:08:58;;;;;;;10.27;4.53;;;11.10;99.90;;;;;;5061425;28;20497;-60
2022/06/11 02:11:45;;;;;;;10.55;4.45;;;11.00;99.90;;;;;;5063114;28;20447;-60
2022/06/11 02:14:27;;;;;;;9.02;4.75;;;10.90;99.90;;;;;;5061530;28;20034;-60
2022/06/11 02:16:58;;;;;;;9.52;5.45;;;10.90;99.90;;;;;;5067823;28;20024;-60
2022/06/11 02:19:26;;;;;;;;;;;11.00;99.90;;;;;;5070181;28;20032;-60
2022/06/11 02:22:03;;;;;;;6.65;4.15;;;11.10;99.90;;;;;;5071626;28;20396;-60
2022/06/11 02:24:34;;;;;;;8.27;4.18;;;11.10;99.90;;;;;;5065895;28;20215;-61
2022/06/11 02:27:01;;;;;;;;;;;11.00;99.90;;;;;;5069118;28;20849;-60
2022/06/11 02:29:30;;;;;;;7.60;4.60;;;11.00;99.90;;;;;;5068493;28;19931;-61
2022/06/11 02:32:10;;;;;;;9.60;4.85;;;11.00;99.90;;;;;;5066089;28;20044;-60
2022/06/11 02:34:44;;;;;;;7.47;4.38;;;10.90;99.90;;;;;;5061416;28;20044;-60
2022/06/11 02:37:23;;;;;;;10.15;4.35;;;10.80;99.90;;;;;;5058402;28;20029;-60
2022/06/11 02:39:51;;;;;;;7.38;4.80;;;10.90;99.90;;;;;;5056492;28;20021;-60
2022/06/11 02:42:19;;;;;;;14.15;4.85;;;11.00;99.90;;;;;;5068384;28;20035;-60
2022/06/11 02:44:46;;;;;;;10.02;5.30;;;10.90;99.90;;;;;;5064196;28;20504;-60
2022/06/11 02:47:14;;;;;;;12.52;5.38;;;10.90;99.90;;;;;;5069408;28;20032;-60
2022/06/11 02:49:39;;;;;;;9.57;4.80;;;10.90;99.90;;;;;;5066185;28;20060;-60
2022/06/11 02:52:15;;;;;;;12.32;5.15;;;10.90;99.90;;;;;;5064686;28;20552;-60
2022/06/11 02:54:43;;;;;;;11.88;5.43;;;10.80;99.90;;;;;;5066249;28;20479;-60
2022/06/11 02:57:14;;;;;;;9.13;4.22;;;10.80;99.90;;;;;;5067171;28;20125;-61
2022/06/11 02:59:43;;;;;;;9.88;4.32;;;10.80;99.90;;;;;;5065199;28;20032;-60
2022/06/11 03:02:09;;;;;;;6.70;3.88;;;10.80;99.90;;;;;;5063778;28;20483;-60
2022/06/11 03:04:36;;;;;;;8.85;4.75;;;10.80;99.90;;;;;;5061753;28;20044;-60
2022/06/11 03:07:03;;;;;;;10.18;5.13;;;10.80;99.90;;;;;;5065997;28;20028;-60
2022/06/11 03:09:31;;;;;;;11.63;5.43;;;11.00;99.90;;;;;;5067718;28;20041;-60
2022/06/11 03:11:58;;;;;;;8.93;5.38;;;11.00;99.90;;;;;;5067738;28;20035;-60
2022/06/11 03:14:24;;;;;;;10.57;4.93;;;10.80;99.90;;;;;;5065356;28;20055;-59
2022/06/11 03:16:50;;;;;;;9.27;4.80;;;10.70;99.90;;;;;;5067470;28;20169;-60
2022/06/11 03:19:20;;;;;;;8.35;4.63;;;10.70;99.90;;;;;;5065851;28;20028;-60
2022/06/11 03:21:51;;;;;;;5.93;4.03;;;10.70;99.90;;;;;;5063735;28;20482;-60
2022/06/11 03:24:17;;;;;;;9.60;4.47;;;10.70;99.90;;;;;;5068760;28;20036;-60
2022/06/11 03:26:43;;;;;;;8.02;4.80;;;10.80;99.90;;;;;;5061247;28;20044;-60
2022/06/11 03:29:09;;;;;;;9.70;4.53;;;10.70;99.90;;;;;;5067255;28;20038;-60
2022/06/11 03:31:36;;;;;;;11.15;4.63;;;10.70;99.90;;;;;;5066819;28;20060;-61
2022/06/11 03:34:01;;;;;;;9.88;5.13;;;10.60;99.90;;;;;;5065045;28;20032;-60
2022/06/11 03:36:27;;;;;;;7.50;4.75;;;10.60;99.90;;;;;;5068585;28;20029;-60
2022/06/11 03:38:53;;;;;;;9.68;5.43;;;10.50;99.90;;;;;;5061215;28;20052;-60
2022/06/11 03:41:21;;;;;;;11.40;5.28;;;10.50;99.90;;;;;;5066948;28;20448;-61
2022/06/11 03:43:49;;;;;;;12.45;5.55;;;10.50;99.90;;;;;;5051000;28;20107;-60
2022/06/11 03:46:15;;;;;;;9.43;5.22;;;10.50;99.90;;;;;;5067356;28;20043;-60
2022/06/11 03:48:41;;;;;;;8.50;5.00;;;10.50;99.90;;;;;;5065933;28;20467;-60
2022/06/11 03:51:08;;;;;;;8.52;4.63;;;10.50;99.90;;;;;;5066600;28;20040;-60
2022/06/11 03:53:35;;;;;;;8.98;4.68;;;10.60;99.90;;;;;;5066881;28;20032;-60
2022/06/11 03:56:02;;;;;;;8.05;4.55;;;10.60;99.90;;;;;;5065767;28;20387;-61
2022/06/11 03:58:28;;;;;;;9.55;4.30;;;10.70;99.90;;;;;;5060486;28;20032;-60
2022/06/11 04:03:40;;;;;;;9.25;4.30;;;10.80;99.90;;;;;;5061685;28;20623;-61
2022/06/11 04:06:06;;;;;;;8.68;4.85;;;10.90;99.90;;;;;;5067379;28;20386;-60
2022/06/11 04:08:32;;;;;;;9.05;4.63;;;10.90;99.90;;;;;;5067232;28;20039;-60
2022/06/11 04:11:00;;;;;;;9.50;4.65;;;11.10;99.90;;;;;;5066352;28;20028;-60
2022/06/11 04:13:29;;;;;;;8.48;4.40;;;11.30;99.90;;;;;;5067604;28;20033;-60
2022/06/11 04:15:56;;;;;;;8.05;4.50;;;11.40;99.90;;;;;;5065336;28;20118;-60
2022/06/11 04:18:33;;;;;;;7.43;4.60;;;11.40;99.90;;;;;;5065042;28;20663;-61
2022/06/11 04:21:00;;;;;;;7.78;4.80;;;11.50;99.90;;;;;;5067836;28;20094;-60
2022/06/11 04:23:29;;;;;;;13.55;5.07;;;11.50;99.90;;;;;;5047037;28;20044;-60
2022/06/11 04:26:01;;;;;;;8.90;4.53;;;11.50;99.90;;;;;;5060554;28;20024;-60
2022/06/11 04:28:31;;;;;;;8.52;4.43;;;11.60;99.90;;;;;;5067153;28;20033;-61
2022/06/11 04:30:58;;;;;;;10.05;4.75;;;11.70;99.90;;;;;;5064222;28;20028;-61
2022/06/11 04:33:24;;;;;;;7.55;4.40;;;11.60;99.90;;;;;;5059524;28;20087;-61
2022/06/11 04:35:49;;;;;;;9.38;4.47;;;11.70;99.90;;;;;;5063910;28;20028;-61
2022/06/11 04:38:17;;;;;;;8.18;4.22;;;11.80;99.90;;;;;;5057177;28;20025;-61
2022/06/11 04:40:43;;;;;;;9.23;4.50;;;11.90;99.90;;;;;;5066930;28;20753;-61
2022/06/11 04:43:09;;;;;;;8.48;4.53;;;12.00;99.90;;;;;;5050032;28;20118;-61
2022/06/11 04:45:35;;;;;;;10.20;4.50;;;12.30;99.90;;;;;;5053585;28;20491;-61
2022/06/11 04:48:00;;;;;;;8.65;4.43;;;12.50;99.90;;;;;;5053757;28;20095;-60
2022/06/11 04:50:27;;;;;;;14.10;4.68;;;12.60;99.90;;;;;;5063346;28;20079;-61
2022/06/11 04:52:52;;;;;;;9.40;4.68;;;12.70;99.90;;;;;;5067196;28;20021;-61
2022/06/11 04:55:18;;;;;;;10.63;5.57;;;12.90;99.90;;;;;;5056519;28;20062;-61
2022/06/11 04:57:45;;;;;;;10.07;4.43;;;12.90;99.90;;;;;;5064875;28;20044;-61
2022/06/11 05:00:16;;;;;;;7.80;4.43;;;12.70;99.90;;;;;;5065367;28;20029;-60
2022/06/11 05:02:41;;;;;;;;;;;12.80;99.90;;;;;;5057280;28;20033;-61
2022/06/11 05:05:08;;;;;;;6.00;4.18;;;13.00;99.90;;;;;;5062659;28;19919;-60
2022/06/11 05:07:34;;;;;;;9.02;4.45;;;13.10;99.90;;;;;;5059909;28;20507;-60
2022/06/11 05:10:00;;;;;;;8.25;4.72;;;13.30;99.90;;;;;;5064427;28;20021;-60
2022/06/11 05:12:25;;;;;;;11.88;4.80;;;13.30;99.90;;;;;;5070324;28;20033;-61
2022/06/11 05:14:51;;;;;;;8.48;5.25;;;13.50;99.90;;;;;;5069715;28;20095;-60
2022/06/11 05:17:18;;;;;;;8.40;4.68;;;13.70;99.90;;;;;;5053300;28;20025;-60
2022/06/11 05:19:44;;;;;;;7.78;4.38;;;13.70;99.90;;;;;;5060100;28;20091;-61
2022/06/11 05:22:10;;;;;;;8.75;4.93;;;13.90;99.90;;;;;;5067114;28;20486;-60
2022/06/11 05:24:36;;;;;;;9.40;4.45;;;14.10;99.90;;;;;;5069020;28;20165;-60
2022/06/11 05:27:07;;;;;;;11.48;4.47;;;14.20;99.90;;;;;;5069156;28;20486;-61
2022/06/11 05:29:41;;;;;;;8.82;4.90;;;14.30;99.90;;;;;;5069860;28;20041;-61
2022/06/11 05:32:07;;;;;;;8.20;4.85;;;14.50;99.90;;;;;;5064576;28;20049;-61
2022/06/11 05:34:33;;;;;;;8.10;4.72;;;14.60;99.90;;;;;;5055011;28;20040;-61
2022/06/11 05:36:59;;;;;;;7.68;4.90;;;14.70;99.90;;;;;;5065592;28;20016;-61
2022/06/11 05:39:26;;;;;;;5.97;4.43;;;14.90;99.90;;;;;;5063852;28;20037;-61
2022/06/11 05:41:52;;;;;;;9.32;4.68;;;15.00;99.90;;;;;;5068671;28;20029;-61
2022/06/11 05:44:18;;;;;;;8.18;4.60;;;15.20;99.90;;;;;;5066519;28;20101;-61
2022/06/11 05:46:44;;;;;;;7.80;4.32;;;15.50;99.90;;;;;;5070031;28;20526;-61
2022/06/11 05:49:15;;;;;;;10.48;4.43;;;15.60;99.90;;;;;;5068243;28;20056;-60
2022/06/11 05:51:45;;;;;;;8.45;4.30;;;15.60;99.90;;;;;;5068486;28;20062;-61
2022/06/11 05:54:15;;;;;;;7.20;4.50;;;15.70;99.90;;;;;;5059126;28;20124;-61
2022/06/11 05:56:42;;;;;;;;;;;15.80;99.90;;;;;;5065987;28;20024;-61
2022/06/11 05:59:13;;;;;;;7.65;4.80;;;16.00;99.90;;;;;;5068704;28;19962;-61
2022/06/11 06:01:40;;;;;;;11.15;5.28;;;16.10;99.90;;;;;;5059402;28;20056;-61
2022/06/11 06:04:06;;;;;;;9.43;5.05;;;16.30;99.90;;;;;;5049923;28;20120;-61
2022/06/11 06:06:33;;;;;;;9.02;4.22;;;16.40;99.90;;;;;;5050252;28;20117;-61
2022/06/11 06:08:58;;;;;;;9.88;4.88;;;16.50;99.90;;;;;;5057853;28;20040;-61
2022/06/11 06:11:25;;;;;;;9.52;4.88;;;16.60;99.90;;;;;;5070173;28;20379;-61
2022/06/11 06:13:52;;;;;;;7.13;4.50;;;16.80;99.90;;;;;;5051507;28;20041;-61
2022/06/11 06:16:20;;;;;;;9.15;4.38;;;17.00;99.90;;;;;;5050176;28;20037;-61
2022/06/11 06:18:47;;;;;;;8.15;4.03;;;17.20;99.90;;;;;;5049344;28;20029;-61
2022/06/11 06:21:14;;;;;;;7.72;4.60;;;17.40;99.90;;;;;;5050123;28;20572;-61
2022/06/11 06:23:39;;;;;;;7.22;3.97;;;17.50;99.90;;;;;;5049696;28;20051;-62
2022/06/11 06:26:05;;;;;;;7.07;4.00;;;17.70;99.90;;;;;;5068968;28;20561;-61
2022/06/11 06:28:32;;;;;;;6.90;4.20;;;17.80;99.90;;;;;;5069872;28;20025;-62
2022/06/11 06:30:59;;;;;;;7.70;3.92;;;18.00;99.90;;;;;;5066597;28;20039;-61
2022/06/11 06:33:26;;;;;;;7.82;4.20;;;18.20;99.90;;;;;;5067144;28;20056;-61
2022/06/11 06:35:52;;;;;;;8.38;3.83;;;18.40;99.90;;;;;;5069119;28;20103;-61
2022/06/11 06:38:17;;;;;;;5.97;3.58;;;18.50;99.90;;;;;;5069476;28;20115;-61
2022/06/11 06:40:44;;;;;;;7.35;3.58;;;18.70;99.90;;;;;;5068670;28;20032;-61
2022/06/11 06:43:09;;;;;;;7.45;4.28;;;18.90;99.90;;;;;;5051607;28;20036;-61
2022/06/11 06:45:35;;;;;;;6.82;3.53;;;19.00;99.90;;;;;;5069390;28;20074;-62
2022/06/11 06:48:02;;;;;;;7.90;3.85;;;19.10;99.90;;;;;;5068813;28;20025;-62
2022/06/11 06:50:28;;;;;;;6.95;3.45;;;19.20;99.90;;;;;;5069454;28;20039;-62
2022/06/11 06:52:54;;;;;;;7.07;3.30;;;19.40;99.90;;;;;;5069036;28;20035;-62
2022/06/11 06:55:20;;;;;;;5.97;3.33;;;19.50;99.90;;;;;;5066222;28;20028;-62
2022/06/11 06:57:46;;;;;;;4.03;3.15;;;19.70;99.90;;;;;;5067831;28;20024;-62
2022/06/11 07:00:12;;;;;;;5.85;3.83;;;19.80;99.90;;;;;;5067458;28;20032;-61
2022/06/11 07:02:38;;;;;;;6.63;3.47;;;19.90;99.90;;;;;;5068991;28;20040;-61
2022/06/11 07:05:04;;;;;;;5.35;3.30;;;20.10;99.90;;;;;;5068513;28;20269;-62
2022/06/11 07:07:30;;;;;;;6.20;3.42;;;20.20;99.90;;;;;;5069232;28;20040;-61
2022/06/11 07:09:57;;;;;;;4.68;3.03;;;20.40;99.90;;;;;;5067284;28;20035;-62
2022/06/11 07:12:23;;;;;;;6.75;3.70;;;20.60;99.90;;;;;;5049052;28;20136;-62
2022/06/11 07:14:49;;;;;;;7.53;3.50;;;20.80;99.90;;;;;;5048187;28;20029;-61
2022/06/11 07:17:17;;;;;;;6.18;3.53;;;20.90;99.90;;;;;;5049124;28;20033;-62
2022/06/11 07:19:51;;;;;;;4.13;2.60;;;21.10;99.90;;;;;;5048962;28;20082;-62
2022/06/11 07:22:22;;;;;;;5.57;3.08;;;21.30;99.90;;;;;;5049031;28;20460;-62
2022/06/11 07:24:48;;;;;;;8.57;2.40;;;21.30;99.90;;;;;;5048030;28;20111;-63
2022/06/11 07:27:19;;;;;;;4.00;2.60;;;21.50;99.90;;;;;;5068915;28;20119;-62
2022/06/11 07:29:50;;;;;;;4.30;2.83;;;21.70;99.90;;;;;;5068663;28;20113;-62
2022/06/11 07:32:20;;;;;;;5.95;2.55;;;21.70;99.90;;;;;;5064690;28;20049;-61
2022/06/11 07:34:46;;;;;;;7.47;2.10;;;21.70;99.90;;;;;;5063778;28;20508;-63
2022/06/11 07:37:12;;;;;;;3.88;2.40;;;21.70;99.90;;;;;;5062652;28;20052;-61
2022/06/11 07:39:38;;;;;;;4.03;2.22;;;21.70;99.90;;;;;;5054751;28;20102;-61
2022/06/11 07:42:04;;;;;;;4.30;2.20;;;21.80;99.90;;;;;;5066875;28;20461;-62
2022/06/11 07:44:31;;;;;;;2.80;2.05;;;21.80;99.90;;;;;;5064068;28;20040;-61
2022/06/11 07:46:57;;;;;;;3.85;2.15;;;21.90;99.90;;;;;;5058620;28;20039;-62
2022/06/11 07:49:23;;;;;;;3.63;2.10;;;22.10;99.90;;;;;;5067057;28;20745;-61
2022/06/11 07:51:48;;;;;;;3.72;2.20;;;22.10;99.90;;;;;;5066400;28;20036;-62
2022/06/11 07:54:14;;;;;;;4.88;2.33;;;22.10;99.90;;;;;;5068457;28;20569;-62
2022/06/11 07:56:40;;;;;;;3.55;2.10;;;22.10;99.90;;;;;;5067112;28;20032;-61
2022/06/11 07:59:06;;;;;;;4.55;2.42;;;22.20;99.90;;;;;;5067790;28;20059;-61
2022/06/11 08:01:33;;;;;;;4.28;2.65;;;22.30;99.90;;;;;;5066772;28;20032;-62
2022/06/11 08:03:58;;;;;;;7.20;2.20;;;22.30;99.90;;;;;;5066900;28;20037;-62
2022/06/11 08:06:24;;;;;;;4.20;2.83;;;22.40;99.90;;;;;;5066504;28;20102;-62
2022/06/11 08:08:50;;;;;;;3.75;2.50;;;22.30;99.90;;;;;;5064370;28;20031;-62
2022/06/11 08:11:17;;;;;;;4.68;2.63;;;22.50;99.90;;;;;;5067346;28;20028;-61
2022/06/11 08:13:42;;;;;;;5.97;2.58;;;22.50;99.90;;;;;;5067005;28;20040;-62
2022/06/11 08:16:10;;;;;;;5.68;2.67;;;22.50;99.90;;;;;;5055215;28;20031;-62
2022/06/11 08:18:37;;;;;;;3.95;2.53;;;22.60;99.90;;;;;;5063937;28;20020;-61
2022/06/11 08:21:03;;;;;;;3.13;2.25;;;22.70;99.90;;;;;;5064998;28;20056;-62
2022/06/11 08:23:30;;;;;;;3.42;2.30;;;22.80;99.10;;;;;;5061689;28;20113;-61
2022/06/11 08:25:56;;;;;;;7.43;2.10;;;22.80;99.60;;;;;;5047238;28;20151;-62
2022/06/11 08:28:23;;;;;;;8.10;2.30;;;22.80;98.50;;;;;;5061214;28;20055;-61
2022/06/11 08:30:49;;;;;;;2.88;2.00;;;23.00;97.90;;;;;;5067668;28;20032;-62
2022/06/11 08:33:16;;;;;;;3.85;2.38;;;23.00;97.30;;;;;;5067098;28;20040;-62
2022/06/11 08:35:42;;;;;;;5.70;1.90;;;23.20;99.90;;;;;;5066345;28;20024;-62
2022/06/11 08:38:08;;;;;;;4.85;2.20;;;23.50;95.70;;;;;;5070934;28;20024;-61
2022/06/11 08:40:35;;;;;;;2.83;2.10;;;23.60;93.50;;;;;;5070098;28;20478;-62
2022/06/11 08:43:03;;;;;;;4.57;1.88;;;23.50;93.50;;;;;;5070909;28;20067;-62
2022/06/11 08:45:38;;;;;;;4.55;2.00;;;23.60;95.50;;;;;;5070018;28;20119;-62
2022/06/11 08:48:35;;;;;;;2.42;1.73;;;23.80;93.50;;;;;;5066321;28;20032;-62
2022/06/11 08:51:03;;;;;;;3.47;1.80;;;23.90;92.60;;;;;;5068385;28;20044;-62
2022/06/11 08:53:32;;;;;;;3.83;2.10;;;23.90;92.20;;;;;;5069049;28;20432;-62
2022/06/11 08:55:58;;;;;;;2.93;2.27;;;24.00;93.70;;;;;;5066719;28;20135;-62
2022/06/11 08:58:30;;;;;;;4.88;2.13;;;24.10;92.20;;;;;;5059741;28;20108;-62
2022/06/11 09:01:20;;;;;;;3.58;2.10;;;24.30;91.50;;;;;;5060884;28;20024;-62
2022/06/11 09:04:04;;;;;;;3.83;1.80;;;24.40;89.40;;;;;;5071515;28;20048;-62
2022/06/11 09:06:41;;;;;;;4.72;2.33;;;24.20;82.10;;;;;;5069229;28;20037;-62
2022/06/11 09:09:33;;;;;;;3.35;1.90;;;24.40;90.40;;;;;;5070637;28;20035;-62
2022/06/11 09:12:13;;;;;;;4.07;2.00;;;24.60;89.70;;;;;;5045630;28;20056;-61
2022/06/11 09:14:57;;;;;;;3.10;2.10;;;24.30;87.30;;;;;;5069347;28;20036;-62
2022/06/11 09:17:46;;;;;;;6.05;2.08;;;24.30;90.50;;;;;;5067934;28;20029;-62
2022/06/11 09:20:30;;;;;;;5.43;2.55;;;24.60;91.00;;;;;;5057279;28;20025;-61
2022/06/11 09:22:55;;;;;;;4.53;2.05;;;24.80;90.00;;;;;;5061532;28;20095;-62
2022/06/11 09:25:27;;;;;;;5.18;2.22;;;25.00;90.30;;;;;;5066688;28;20036;-61
2022/06/11 09:28:22;;;;;;;5.63;2.15;;;24.50;87.40;;;;;;5061957;28;20029;-63
2022/06/11 09:30:57;;;;;;;3.65;2.15;;;24.30;89.80;;;;;;5036250;28;20044;-61
2022/06/11 09:33:56;;;;;;;5.32;1.80;;;24.40;86.50;;;;;;5053509;28;20036;-60
2022/06/11 09:36:28;;;;;;;3.13;1.97;;;24.50;85.90;;;;;;5066142;28;20048;-61
2022/06/11 09:39:10;;;;;;;2.95;2.17;;;24.50;90.20;;;;;;5069656;28;20034;-62
2022/06/11 09:42:10;;;;;;;4.07;2.15;;;24.60;90.40;;;;;;5068786;28;20713;-61
2022/06/11 09:44:51;;;;;;;4.32;2.40;;;24.80;87.60;;;;;;5060550;28;20706;-62
2022/06/11 09:47:28;;;;;;;4.43;2.20;;;25.10;83.90;;;;;;5068720;28;20108;-61
2022/06/11 09:50:35;;;;;;;2.50;2.08;;;25.30;84.70;;;;;;5068629;28;20024;-63
2022/06/11 09:53:19;;;;;;;5.25;2.03;;;25.20;85.70;;;;;;4987016;28;20030;-61
2022/06/11 09:56:02;;;;;;;5.55;2.30;;;25.20;87.30;;;;;;5066635;28;20106;-61
2022/06/11 09:58:49;;;;;;;3.40;2.05;;;25.30;81.20;;;;;;5067275;28;20043;-60
2022/06/11 10:01:18;;;;;;;4.72;2.25;;;25.40;84.00;;;;;;5069771;28;20036;-61
2022/06/11 10:03:59;;;;;;;5.05;1.85;;;25.40;77.40;;;;;;5068125;28;20078;-62
2022/06/11 10:06:34;;;;;;;3.28;2.28;;;25.70;73.50;;;;;;5063382;28;20177;-61
2022/06/11 10:09:08;;;;;;;11.68;2.40;;;25.90;78.50;;;;;;5065539;28;20493;-62
2022/06/11 10:11:58;;;;;;;5.35;2.17;;;25.80;76.90;;;;;;5069685;28;20148;-63
2022/06/11 10:14:30;;;;;;;2.65;2.22;;;25.70;75.00;;;;;;5067040;28;20087;-63
2022/06/11 10:17:05;;;;;;;2.65;1.95;;;25.80;75.10;;;;;;5066718;28;20045;-64
2022/06/11 10:19:40;;;;;;;3.35;2.10;;;25.80;75.50;;;;;;5051169;28;20399;-63
2022/06/11 10:22:28;;;;;;;4.47;2.20;;;25.50;78.00;;;;;;5067084;28;20032;-63
2022/06/11 10:25:04;;;;;;;3.25;1.90;;;24.90;73.70;;;;;;5068718;28;20036;-64
2022/06/11 10:27:35;;;;;;;4.28;2.17;;;25.10;76.60;;;;;;5067880;28;20443;-63
2022/06/11 10:30:24;;;;;;;4.45;2.30;;;25.30;75.70;;;;;;5066329;28;20258;-66
2022/06/11 10:32:52;;;;;;;2.00;1.80;;;25.50;77.50;;;;;;5067742;28;20057;-64
2022/06/11 10:35:22;;;;;;;2.83;2.00;;;26.00;75.50;;;;;;5068068;28;20644;-64
2022/06/11 10:38:06;;;;;;;4.63;1.80;;;26.40;84.70;;;;;;5067578;28;20024;-64
2022/06/11 10:40:40;;;;;;;3.53;1.80;;;26.50;71.50;;;;;;5069217;28;20087;-64
2022/06/11 10:43:42;;;;;;;3.85;1.70;;;26.30;75.90;;;;;;5054207;28;20040;-63
2022/06/11 10:46:11;;;;;;;2.22;1.75;;;26.30;71.70;;;;;;5068736;28;20036;-63
2022/06/11 10:48:38;;;;;;;4.05;1.92;;;26.10;70.90;;;;;;5065452;28;20028;-64
2022/06/11 10:51:19;;;;;;;2.80;1.85;;;26.20;68.60;;;;;;5067498;28;20483;-64
2022/06/11 10:54:17;;;;;;;3.47;1.67;;;26.50;67.30;;;;;;5068524;28;20043;-64
2022/06/11 10:56:49;;;;;;;4.10;1.90;;;26.80;70.70;;;;;;5041213;28;20047;-63
2022/06/11 10:59:39;;;;;;;4.22;1.85;;;26.80;68.50;;;;;;5066435;28;20186;-65
2022/06/11 11:02:31;;;;;;;3.17;1.67;;;26.20;68.60;;;;;;5058185;28;20033;-66
2022/06/11 11:04:58;;;;;;;2.75;1.80;;;25.90;69.60;;;;;;5054064;28;20037;-64
2022/06/11 11:07:24;;;;;;;3.67;1.98;;;26.00;69.50;;;;;;5066773;28;20060;-65
2022/06/11 11:09:57;;;;;;;4.28;1.95;;;26.00;71.70;;;;;;5067663;28;20057;-63
2022/06/11 11:12:33;;;;;;;3.75;1.88;;;26.10;69.60;;;;;;5068617;28;20064;-64
2022/06/11 11:15:10;;;;;;;2.92;1.70;;;26.20;73.50;;;;;;5067803;28;20492;-66
2022/06/11 11:17:48;;;;;;;1.73;1.58;;;26.40;70.30;;;;;;5069104;28;20040;-64
2022/06/11 11:20:30;;;;;;;3.00;1.80;;;26.80;64.50;;;;;;5065340;28;20029;-66
2022/06/11 11:23:17;;;;;;;5.22;2.10;;;26.90;62.70;;;;;;5060323;28;20394;-65
2022/06/11 11:25:48;;;;;;;3.17;1.90;;;27.10;71.90;;;;;;5066708;28;20699;-63
2022/06/11 11:28:22;;;;;;;2.65;1.50;;;26.80;66.20;;;;;;5066434;28;20120;-64
2022/06/11 11:31:01;;;;;;;6.70;1.75;;;26.50;65.00;;;;;;5068650;28;20047;-64
2022/06/11 11:33:31;;;;;;;4.68;1.88;;;26.70;64.70;;;;;;5068164;28;20045;-63
2022/06/11 11:36:18;;;;;;;5.25;1.70;;;27.10;64.10;;;;;;5068194;28;20024;-66
2022/06/11 11:38:43;;;;;;;2.58;1.65;;;27.10;62.50;;;;;;5056255;28;20047;-64
2022/06/11 11:41:24;;;;;;;5.35;2.20;;;27.40;68.40;;;;;;5062427;28;20036;-63
2022/06/11 11:43:51;;;;;;;2.88;1.80;;;27.00;60.70;;;;;;5050076;28;20048;-63
2022/06/11 11:46:25;;;;;;;3.95;2.00;;;26.90;68.60;;;;;;5066563;28;20028;-63
2022/06/11 11:48:56;;;;;;;2.83;1.60;;;26.70;61.60;;;;;;5066913;28;20047;-63
2022/06/11 11:51:27;;;;;;;3.13;1.73;;;26.80;65.50;;;;;;5067736;28;20021;-63
2022/06/11 11:54:00;;;;;;;2.67;1.60;;;27.30;62.50;;;;;;5067136;28;20037;-63
2022/06/11 11:56:46;;;;;;;3.00;1.83;;;27.50;64.20;;;;;;5052286;28;20064;-63
2022/06/11 11:59:14;;;;;;;6.70;1.77;;;27.00;62.90;;;;;;5061594;28;20028;-63
2022/06/11 12:01:42;;;;;;;6.43;1.67;;;27.00;59.70;;;;;;5066934;28;20482;-64
2022/06/11 12:04:25;;;;;;;3.15;1.83;;;27.20;59.50;;;;;;5066062;28;20032;-63
2022/06/11 12:06:55;;;;;;;2.40;1.65;;;27.20;67.30;;;;;;5067224;28;20024;-63
2022/06/11 12:09:23;;;;;;;3.92;1.90;;;27.20;63.30;;;;;;5066534;28;20040;-63
2022/06/11 12:12:10;;;;;;;3.92;2.13;;;27.30;60.80;;;;;;5070085;28;20028;-64
2022/06/11 12:14:39;;;;;;;2.15;1.67;;;27.50;60.70;;;;;;5051570;28;20063;-63
2022/06/11 12:17:22;;;;;;;2.60;1.67;;;27.80;59.30;;;;;;5070464;28;20060;-65
2022/06/11 12:20:00;;;;;;;3.70;1.70;;;27.90;58.90;;;;;;5066032;28;20040;-66
2022/06/11 12:22:38;;;;;;;4.35;1.92;;;27.40;63.60;;;;;;5070447;28;20040;-63
2022/06/11 12:25:05;;;;;;;3.83;2.08;;;26.40;62.30;;;;;;5070861;28;20103;-64
2022/06/11 12:27:33;;;;;;;3.08;1.70;;;26.00;65.10;;;;;;5071128;28;20540;-62
2022/06/11 12:30:03;;;;;;;2.80;1.80;;;26.10;68.70;;;;;;5071851;28;20029;-65
2022/06/11 12:32:31;;;;;;;2.72;1.80;;;26.00;63.90;;;;;;5070733;28;20056;-62
2022/06/11 12:35:00;;;;;;;2.40;2.17;;;26.10;67.70;;;;;;5065064;28;20090;-62
2022/06/11 12:37:41;;;;;;;3.22;1.95;;;26.60;68.20;;;;;;5057102;28;20032;-63
2022/06/11 12:40:25;;;;;;;;;;;26.60;65.20;;;;;;5070832;28;20470;-64
2022/06/11 12:42:58;;;;;;;;;;;26.70;61.30;;;;;;5071060;28;19918;-63
2022/06/11 12:45:30;;;;;;;;;;;27.20;62.90;;;;;;5070676;28;19912;-63
2022/06/11 12:48:14;;;;;;;;;;;27.70;58.40;;;;;;5071033;28;19913;-62
2022/06/11 12:50:48;;;;;;;;;;;28.00;58.40;;;;;;5069856;28;20013;-63
2022/06/11 12:53:13;;;;;;;;;;;28.10;56.40;;;;;;5070451;28;20255;-63
2022/06/11 12:55:39;;;;;;;;;;;28.20;59.80;;;;;;5070802;28;19923;-63
2022/06/11 12:58:17;;;;;;;;;;;28.20;61.80;;;;;;5071000;28;19932;-64
2022/06/11 13:00:50;;;;;;;;;;;27.50;59.30;;;;;;5069597;28;19908;-63
2022/06/11 13:03:35;;;;;;;;;;;27.40;62.90;;;;;;5071221;28;19916;-62
2022/06/11 13:06:19;;;;;;;;;;;27.60;65.60;;;;;;5069920;28;19917;-62
2022/06/11 13:09:19;;;;;;;;;;;27.90;64.60;;;;;;5068492;28;19943;-62
2022/06/11 13:11:48;;;;;;;;;;;27.90;60.20;;;;;;5009216;28;19944;-62
2022/06/11 13:14:23;;;;;;;;;;;27.70;61.90;;;;;;5054990;28;19919;-63
2022/06/11 13:17:13;;;;;;;;;;;27.50;58.10;;;;;;5071631;28;19955;-62
2022/06/11 13:19:38;;;;;;;;;;;27.80;63.90;;;;;;5051731;28;19918;-63